createdAt,value
2018-06-01T00:00:45.410Z,16.38
2018-06-01T00:03:11.566Z,16.24
2018-06-01T00:05:37.332Z,16.16
2018-06-01T00:08:03.068Z,16.13
2018-06-01T00:10:28.799Z,16.08
2018-06-01T00:12:55.238Z,16.16
2018-06-01T00:15:20.975Z,16.09
2018-06-01T00:17:46.719Z,16.02
2018-06-01T00:20:12.450Z,15.98
2018-06-01T00:22:38.185Z,15.99
2018-06-01T00:25:03.951Z,15.92
2018-06-01T00:27:29.648Z,15.86
2018-06-01T00:29:55.384Z,15.85
2018-06-01T00:32:21.123Z,15.85
2018-06-01T00:34:46.843Z,15.80
2018-06-01T00:37:13.134Z,15.79
2018-06-01T00:39:38.937Z,15.81
2018-06-01T00:42:05.820Z,15.80
2018-06-01T00:44:31.576Z,15.81
2018-06-01T00:46:57.284Z,15.79
2018-06-01T00:49:23.004Z,15.76
2018-06-01T00:51:48.735Z,15.73
2018-06-01T00:54:14.471Z,15.71
2018-06-01T00:56:40.201Z,15.71
2018-06-01T00:59:05.941Z,15.72
2018-06-01T01:01:31.677Z,15.61
2018-06-01T01:03:57.412Z,15.61
2018-06-01T01:06:23.143Z,15.52
2018-06-01T01:08:48.881Z,15.58
2018-06-01T01:11:14.668Z,15.54
2018-06-01T01:13:40.398Z,15.50
2018-06-01T01:16:06.124Z,15.48
2018-06-01T01:18:31.857Z,15.44
2018-06-01T01:20:57.593Z,15.44
2018-06-01T01:23:23.336Z,15.42
2018-06-01T01:25:49.071Z,15.39
2018-06-01T01:28:14.803Z,15.36
2018-06-01T01:30:40.535Z,15.35
2018-06-01T01:33:06.279Z,15.36
2018-06-01T01:35:32.000Z,15.35
2018-06-01T01:37:57.738Z,15.32
2018-06-01T01:40:23.460Z,15.28
2018-06-01T01:42:49.184Z,15.29
2018-06-01T01:45:14.928Z,15.23
2018-06-01T01:47:40.648Z,15.27
2018-06-01T01:50:06.387Z,15.23
2018-06-01T01:52:32.126Z,15.27
2018-06-01T01:54:57.861Z,15.27
2018-06-01T01:57:23.604Z,15.28
2018-06-01T01:59:49.345Z,15.25
2018-06-01T02:02:15.079Z,15.23
2018-06-01T02:04:40.823Z,15.30
2018-06-01T02:07:06.561Z,15.46
2018-06-01T02:09:32.306Z,15.30
2018-06-01T02:11:58.036Z,15.27
2018-06-01T02:14:23.776Z,15.21
2018-06-01T02:16:49.511Z,15.25
2018-06-01T02:19:15.252Z,15.14
2018-06-01T02:21:40.983Z,15.15
2018-06-01T02:24:06.727Z,15.22
2018-06-01T02:26:32.465Z,15.20
2018-06-01T02:28:58.208Z,15.25
2018-06-01T02:31:23.948Z,15.12
2018-06-01T02:33:49.685Z,15.05
2018-06-01T02:36:15.416Z,15.07
2018-06-01T02:38:41.493Z,14.96
2018-06-01T02:41:07.242Z,14.95
2018-06-01T02:43:39.968Z,14.94
2018-06-01T02:46:05.709Z,14.92
2018-06-01T02:48:31.448Z,14.97
2018-06-01T02:50:57.186Z,15.00
2018-06-01T02:53:22.921Z,14.96
2018-06-01T02:55:48.655Z,14.89
2018-06-01T02:58:14.392Z,14.87
2018-06-01T03:00:40.127Z,14.85
2018-06-01T03:03:05.856Z,14.90
2018-06-01T03:05:31.608Z,14.88
2018-06-01T03:07:57.349Z,14.84
2018-06-01T03:10:23.125Z,14.86
2018-06-01T03:12:48.849Z,14.85
2018-06-01T03:15:14.617Z,14.86
2018-06-01T03:17:40.355Z,14.90
2018-06-01T03:20:06.097Z,14.92
2018-06-01T03:22:31.825Z,14.98
2018-06-01T03:24:57.572Z,15.01
2018-06-01T03:27:23.300Z,15.22
2018-06-01T03:29:49.054Z,15.31
2018-06-01T03:32:14.764Z,15.39
2018-06-01T03:34:40.509Z,15.53
2018-06-01T03:37:06.241Z,15.35
2018-06-01T03:39:31.985Z,15.18
2018-06-01T03:41:57.703Z,15.11
2018-06-01T03:44:23.436Z,15.13
2018-06-01T03:46:49.178Z,15.21
2018-06-01T03:49:14.922Z,15.21
2018-06-01T03:51:40.676Z,15.24
2018-06-01T03:54:06.421Z,15.43
2018-06-01T03:56:32.158Z,15.36
2018-06-01T03:58:57.905Z,15.38
2018-06-01T04:01:23.641Z,15.40
2018-06-01T04:03:49.380Z,15.55
2018-06-01T04:06:15.119Z,15.54
2018-06-01T04:08:40.847Z,15.61
2018-06-01T04:11:06.577Z,15.51
2018-06-01T04:13:32.312Z,15.96
2018-06-01T04:15:58.048Z,15.88
2018-06-01T04:18:23.776Z,16.03
2018-06-01T04:20:49.512Z,15.78
2018-06-01T04:23:15.254Z,15.91
2018-06-01T04:25:41.005Z,15.90
2018-06-01T04:28:06.728Z,15.91
2018-06-01T04:30:32.473Z,16.01
2018-06-01T04:32:58.192Z,16.07
2018-06-01T04:35:23.945Z,16.12
2018-06-01T04:37:49.681Z,16.16
2018-06-01T04:40:15.426Z,16.22
2018-06-01T04:42:41.164Z,16.21
2018-06-01T04:45:06.914Z,16.27
2018-06-01T04:47:32.905Z,16.40
2018-06-01T04:49:58.646Z,16.61
2018-06-01T04:52:24.379Z,16.33
2018-06-01T04:54:50.120Z,16.60
2018-06-01T04:57:15.853Z,16.74
2018-06-01T04:59:41.604Z,16.67
2018-06-01T05:02:07.344Z,16.78
2018-06-01T05:04:33.071Z,16.60
2018-06-01T05:06:58.806Z,16.72
2018-06-01T05:09:24.544Z,16.92
2018-06-01T05:11:50.280Z,16.93
2018-06-01T05:14:16.011Z,16.85
2018-06-01T05:16:41.783Z,17.18
2018-06-01T05:19:07.498Z,17.40
2018-06-01T05:21:33.254Z,17.04
2018-06-01T05:23:58.982Z,17.17
2018-06-01T05:26:24.736Z,17.55
2018-06-01T05:28:50.459Z,17.37
2018-06-01T05:31:16.200Z,17.33
2018-06-01T05:33:41.933Z,17.38
2018-06-01T05:36:07.687Z,17.59
2018-06-01T05:38:33.432Z,17.71
2018-06-01T05:40:59.192Z,17.78
2018-06-01T05:43:24.948Z,17.54
2018-06-01T05:45:50.682Z,17.57
2018-06-01T05:48:16.424Z,18.05
2018-06-01T05:50:42.159Z,17.94
2018-06-01T05:53:07.905Z,18.08
2018-06-01T05:55:33.641Z,17.97
2018-06-01T05:58:06.180Z,18.02
2018-06-01T06:00:31.940Z,18.43
2018-06-01T06:02:57.663Z,18.10
2018-06-01T06:05:23.411Z,18.46
2018-06-01T06:07:49.140Z,18.24
2018-06-01T06:10:14.891Z,18.26
2018-06-01T06:12:40.635Z,18.44
2018-06-01T06:15:06.366Z,18.55
2018-06-01T06:17:32.104Z,18.62
2018-06-01T06:19:57.858Z,18.65
2018-06-01T06:22:23.607Z,18.86
2018-06-01T06:24:49.344Z,19.17
2018-06-01T06:27:15.093Z,18.84
2018-06-01T06:29:40.824Z,19.29
2018-06-01T06:32:06.569Z,19.25
2018-06-01T06:34:32.301Z,19.37
2018-06-01T06:36:58.045Z,19.89
2018-06-01T06:39:23.775Z,20.37
2018-06-01T06:41:49.523Z,20.37
2018-06-01T06:44:15.274Z,20.63
2018-06-01T06:46:41.017Z,20.86
2018-06-01T06:49:06.745Z,20.94
2018-06-01T06:51:32.468Z,21.03
2018-06-01T06:53:58.209Z,20.60
2018-06-01T06:56:23.944Z,20.41
2018-06-01T06:58:49.685Z,20.41
2018-06-01T07:01:15.420Z,20.70
2018-06-01T07:03:41.157Z,20.61
2018-06-01T07:06:06.924Z,20.86
2018-06-01T07:08:32.687Z,21.31
2018-06-01T07:10:58.425Z,21.49
2018-06-01T07:13:24.176Z,21.59
2018-06-01T07:15:49.938Z,21.28
2018-06-01T07:18:15.744Z,21.28
2018-06-01T07:20:41.420Z,21.72
2018-06-01T07:23:07.156Z,22.06
2018-06-01T07:25:32.909Z,22.16
2018-06-01T07:27:58.648Z,22.03
2018-06-01T07:30:24.387Z,22.24
2018-06-01T07:32:50.147Z,22.50
2018-06-01T07:35:15.892Z,22.62
2018-06-01T07:37:41.642Z,22.41
2018-06-01T07:40:07.376Z,22.49
2018-06-01T07:42:33.127Z,23.43
2018-06-01T07:44:58.867Z,23.00
2018-06-01T07:47:24.615Z,23.06
2018-06-01T07:49:50.356Z,23.30
2018-06-01T07:52:16.119Z,23.58
2018-06-01T07:54:41.857Z,23.19
2018-06-01T07:57:07.598Z,23.57
2018-06-01T07:59:33.329Z,24.26
2018-06-01T08:01:59.072Z,23.61
2018-06-01T08:04:24.822Z,23.88
2018-06-01T08:06:50.577Z,23.86
2018-06-01T08:09:16.377Z,24.16
2018-06-01T08:11:42.093Z,23.91
2018-06-01T08:14:07.820Z,24.34
2018-06-01T08:16:33.565Z,24.60
2018-06-01T08:18:59.313Z,25.46
2018-06-01T08:21:25.071Z,25.34
2018-06-01T08:23:50.818Z,25.59
2018-06-01T08:26:16.563Z,24.43
2018-06-01T08:28:42.318Z,24.59
2018-06-01T08:31:08.043Z,24.29
2018-06-01T08:33:33.783Z,25.60
2018-06-01T08:35:59.517Z,26.31
2018-06-01T08:38:25.261Z,26.51
2018-06-01T08:40:50.994Z,26.63
2018-06-01T08:43:16.754Z,26.47
2018-06-01T08:45:42.508Z,26.64
2018-06-01T08:48:08.258Z,26.56
2018-06-01T08:50:33.995Z,25.65
2018-06-01T08:52:59.733Z,25.38
2018-06-01T08:55:25.484Z,26.10
2018-06-01T08:57:51.238Z,26.36
2018-06-01T09:00:16.969Z,26.67
2018-06-01T09:02:42.718Z,26.87
2018-06-01T09:05:08.456Z,26.24
2018-06-01T09:07:34.192Z,27.28
2018-06-01T09:09:59.970Z,27.41
2018-06-01T09:12:25.680Z,27.46
2018-06-01T09:14:51.411Z,27.63
2018-06-01T09:17:17.170Z,27.62
2018-06-01T09:19:42.923Z,27.09
2018-06-01T09:22:08.718Z,27.76
2018-06-01T09:24:34.448Z,28.08
2018-06-01T09:27:00.214Z,28.15
2018-06-01T09:29:25.989Z,27.68
2018-06-01T09:31:51.725Z,27.39
2018-06-01T09:34:17.492Z,26.35
2018-06-01T09:36:43.236Z,26.35
2018-06-01T09:39:08.981Z,26.28
2018-06-01T09:41:34.732Z,26.23
2018-06-01T09:44:00.483Z,26.54
2018-06-01T09:46:26.233Z,26.77
2018-06-01T09:48:51.968Z,27.05
2018-06-01T09:51:17.703Z,26.68
2018-06-01T09:53:43.456Z,27.50
2018-06-01T09:56:09.197Z,27.07
2018-06-01T09:58:34.935Z,26.24
2018-06-01T10:01:00.687Z,27.24
2018-06-01T10:03:26.438Z,27.81
2018-06-01T10:05:52.197Z,26.65
2018-06-01T10:08:17.961Z,27.17
2018-06-01T10:10:44.060Z,27.80
2018-06-01T10:13:09.848Z,26.51
2018-06-01T10:15:35.657Z,27.42
2018-06-01T10:18:01.365Z,27.08
2018-06-01T10:20:27.142Z,26.99
2018-06-01T10:22:52.898Z,27.45
2018-06-01T10:25:18.641Z,27.31
2018-06-01T10:27:44.457Z,27.16
2018-06-01T10:30:10.258Z,27.30
2018-06-01T10:32:36.492Z,27.13
2018-06-01T10:35:02.271Z,27.47
2018-06-01T10:37:28.012Z,27.37
2018-06-01T10:39:53.761Z,27.46
2018-06-01T10:42:19.505Z,27.27
2018-06-01T10:44:45.742Z,27.64
2018-06-01T10:47:11.492Z,27.54
2018-06-01T10:49:37.785Z,27.78
2018-06-01T10:52:04.253Z,27.96
2018-06-01T10:54:30.053Z,27.67
2018-06-01T10:56:55.785Z,27.60
2018-06-01T10:59:21.533Z,26.83
2018-06-01T11:01:47.285Z,26.99
2018-06-01T11:04:13.024Z,27.90
2018-06-01T11:06:38.762Z,27.18
2018-06-01T11:09:04.522Z,27.88
2018-06-01T11:11:30.273Z,28.23
2018-06-01T11:13:56.020Z,28.30
2018-06-01T11:16:21.759Z,28.70
2018-06-01T11:18:47.496Z,28.89
2018-06-01T11:21:13.350Z,27.88
2018-06-01T11:23:39.767Z,28.76
2018-06-01T11:26:05.555Z,28.48
2018-06-01T11:28:31.330Z,27.96
2018-06-01T11:30:57.085Z,27.32
2018-06-01T11:33:22.838Z,27.40
2018-06-01T11:35:48.580Z,28.21
2018-06-01T11:38:14.331Z,27.57
2018-06-01T11:40:40.083Z,27.99
2018-06-01T11:43:05.843Z,28.22
2018-06-01T11:45:31.603Z,28.06
2018-06-01T11:47:57.356Z,27.90
2018-06-01T11:50:23.122Z,27.90
2018-06-01T11:52:48.879Z,28.32
2018-06-01T11:55:14.645Z,28.30
2018-06-01T11:57:40.400Z,28.26
2018-06-01T12:00:06.180Z,28.25
2018-06-01T12:02:32.067Z,27.98
2018-06-01T12:04:57.821Z,27.59
2018-06-01T12:07:23.689Z,27.08
2018-06-01T12:09:49.840Z,27.56
2018-06-01T12:12:15.584Z,28.21
2018-06-01T12:14:41.349Z,29.09
2018-06-01T12:17:07.285Z,28.56
2018-06-01T12:19:33.048Z,27.89
2018-06-01T12:21:58.793Z,27.68
2018-06-01T12:24:24.542Z,27.68
2018-06-01T12:26:50.290Z,27.08
2018-06-01T12:29:16.060Z,28.17
2018-06-01T12:31:41.806Z,28.04
2018-06-01T12:34:07.550Z,28.27
2018-06-01T12:36:33.306Z,27.97
2018-06-01T12:38:59.068Z,28.06
2018-06-01T12:41:24.813Z,28.13
2018-06-01T12:43:50.552Z,27.72
2018-06-01T12:46:16.286Z,27.62
2018-06-01T12:48:42.032Z,28.24
2018-06-01T12:51:07.781Z,27.76
2018-06-01T12:53:33.532Z,28.31
2018-06-01T12:55:59.276Z,27.75
2018-06-01T12:58:25.008Z,28.77
2018-06-01T13:00:50.747Z,28.74
2018-06-01T13:03:16.482Z,27.98
2018-06-01T13:05:42.246Z,27.54
2018-06-01T13:08:07.992Z,27.58
2018-06-01T13:10:33.741Z,27.92
2018-06-01T13:12:59.468Z,28.73
2018-06-01T13:15:25.231Z,28.08
2018-06-01T13:17:50.989Z,28.29
2018-06-01T13:20:16.760Z,28.05
2018-06-01T13:22:42.505Z,27.88
2018-06-01T13:25:08.253Z,27.41
2018-06-01T13:27:34.016Z,27.89
2018-06-01T13:29:59.758Z,28.33
2018-06-01T13:32:25.493Z,28.11
2018-06-01T13:34:51.251Z,28.00
2018-06-01T13:37:16.996Z,28.06
2018-06-01T13:39:42.736Z,27.90
2018-06-01T13:42:08.473Z,28.83
2018-06-01T13:44:34.230Z,28.56
2018-06-01T13:46:59.970Z,28.89
2018-06-01T13:49:25.714Z,28.08
2018-06-01T13:51:51.461Z,28.36
2018-06-01T13:54:17.207Z,28.50
2018-06-01T13:56:42.957Z,27.96
2018-06-01T13:59:08.706Z,27.36
2018-06-01T14:01:34.465Z,27.59
2018-06-01T14:04:00.225Z,28.01
2018-06-01T14:06:26.000Z,28.06
2018-06-01T14:08:51.753Z,27.58
2018-06-01T14:11:17.512Z,28.29
2018-06-01T14:13:43.329Z,28.04
2018-06-01T14:16:09.089Z,27.70
2018-06-01T14:18:34.828Z,27.80
2018-06-01T14:21:00.619Z,28.61
2018-06-01T14:23:26.363Z,28.14
2018-06-01T14:25:52.112Z,27.99
2018-06-01T14:28:17.855Z,28.53
2018-06-01T14:30:43.605Z,28.63
2018-06-01T14:33:09.369Z,27.53
2018-06-01T14:35:35.116Z,27.77
2018-06-01T14:38:00.865Z,28.31
2018-06-01T14:40:26.596Z,28.40
2018-06-01T14:42:52.334Z,27.91
2018-06-01T14:45:18.076Z,28.01
2018-06-01T14:47:43.809Z,27.74
2018-06-01T14:50:09.597Z,28.34
2018-06-01T14:52:35.328Z,27.70
2018-06-01T14:55:01.068Z,27.62
2018-06-01T14:57:26.818Z,27.42
2018-06-01T14:59:52.565Z,27.22
2018-06-01T15:02:18.308Z,27.42
2018-06-01T15:04:44.041Z,27.84
2018-06-01T15:07:09.794Z,27.47
2018-06-01T15:09:35.527Z,26.99
2018-06-01T15:12:01.281Z,27.14
2018-06-01T15:14:27.022Z,27.51
2018-06-01T15:16:52.776Z,27.57
2018-06-01T15:19:18.525Z,27.31
2018-06-01T15:21:44.319Z,26.87
2018-06-01T15:24:10.060Z,26.79
2018-06-01T15:26:35.812Z,27.17
2018-06-01T15:29:01.574Z,26.72
2018-06-01T15:31:27.342Z,26.66
2018-06-01T15:33:53.123Z,26.81
2018-06-01T15:36:18.863Z,27.04
2018-06-01T15:38:44.608Z,27.00
2018-06-01T15:41:10.363Z,27.00
2018-06-01T15:43:36.081Z,27.04
2018-06-01T15:46:01.824Z,26.85
2018-06-01T15:48:27.568Z,27.27
2018-06-01T15:50:53.341Z,26.57
2018-06-01T15:53:19.068Z,27.11
2018-06-01T15:55:44.805Z,26.74
2018-06-01T15:58:10.553Z,27.05
2018-06-01T16:00:36.300Z,26.85
2018-06-01T16:03:02.049Z,26.48
2018-06-01T16:05:27.811Z,26.70
2018-06-01T16:07:53.552Z,26.78
2018-06-01T16:10:19.292Z,26.78
2018-06-01T16:12:45.069Z,26.35
2018-06-01T16:15:10.813Z,26.44
2018-06-01T16:17:36.576Z,26.39
2018-06-01T16:20:02.341Z,26.24
2018-06-01T16:22:28.080Z,26.16
2018-06-01T16:24:53.821Z,26.08
2018-06-01T16:27:19.580Z,26.21
2018-06-01T16:29:45.326Z,25.97
2018-06-01T16:32:11.090Z,26.09
2018-06-01T16:34:36.816Z,26.15
2018-06-01T16:37:02.564Z,26.15
2018-06-01T16:39:28.292Z,25.94
2018-06-01T16:41:54.032Z,25.76
2018-06-01T16:44:19.784Z,25.58
2018-06-01T16:46:45.532Z,25.91
2018-06-01T16:49:11.265Z,25.74
2018-06-01T16:51:37.018Z,25.68
2018-06-01T16:54:02.776Z,25.38
2018-06-01T16:56:28.508Z,25.35
2018-06-01T16:58:54.253Z,25.34
2018-06-01T17:01:19.993Z,25.42
2018-06-01T17:03:45.744Z,25.39
2018-06-01T17:06:11.479Z,25.48
2018-06-01T17:08:37.255Z,25.29
2018-06-01T17:11:03.000Z,25.66
2018-06-01T17:13:28.760Z,25.43
2018-06-01T17:15:54.512Z,25.18
2018-06-01T17:18:20.286Z,25.33
2018-06-01T17:20:46.030Z,25.45
2018-06-01T17:23:11.792Z,25.33
2018-06-01T17:25:37.550Z,25.30
2018-06-01T17:28:03.311Z,25.42
2018-06-01T17:30:29.089Z,25.46
2018-06-01T17:32:54.819Z,25.53
2018-06-01T17:35:20.569Z,25.31
2018-06-01T17:37:46.310Z,25.22
2018-06-01T17:40:12.063Z,25.15
2018-06-01T17:42:38.237Z,25.04
2018-06-01T17:45:04.163Z,25.07
2018-06-01T17:47:30.387Z,24.94
2018-06-01T17:49:56.167Z,24.93
2018-06-01T17:52:21.920Z,24.83
2018-06-01T17:54:47.665Z,24.70
2018-06-01T17:57:13.429Z,24.70
2018-06-01T17:59:39.161Z,24.62
2018-06-01T18:02:04.904Z,24.51
2018-06-01T18:04:30.648Z,24.50
2018-06-01T18:06:56.420Z,24.43
2018-06-01T18:09:22.156Z,24.63
2018-06-01T18:11:47.902Z,24.35
2018-06-01T18:14:13.664Z,24.31
2018-06-01T18:16:39.425Z,24.37
2018-06-01T18:19:05.161Z,24.19
2018-06-01T18:21:30.922Z,24.16
2018-06-01T18:23:57.987Z,24.12
2018-06-01T18:26:23.846Z,24.13
2018-06-01T18:28:49.612Z,24.00
2018-06-01T18:31:15.370Z,23.96
2018-06-01T18:33:41.180Z,23.86
2018-06-01T18:36:06.925Z,23.90
2018-06-01T18:38:32.660Z,23.84
2018-06-01T18:40:58.663Z,23.72
2018-06-01T18:43:24.579Z,23.80
2018-06-01T18:45:50.456Z,23.71
2018-06-01T18:48:16.564Z,23.66
2018-06-01T18:50:42.305Z,23.52
2018-06-01T18:53:08.263Z,23.56
2018-06-01T18:55:34.114Z,23.53
2018-06-01T18:58:00.741Z,23.44
2018-06-01T19:00:26.580Z,23.64
2018-06-01T19:02:52.335Z,23.58
2018-06-01T19:05:18.068Z,23.53
2018-06-01T19:07:43.819Z,23.43
2018-06-01T19:10:09.549Z,23.37
2018-06-01T19:12:35.288Z,23.33
2018-06-01T19:15:01.021Z,23.34
2018-06-01T19:17:26.812Z,23.13
2018-06-01T19:19:52.514Z,23.05
2018-06-01T19:22:18.256Z,23.03
2018-06-01T19:24:44.094Z,23.03
2018-06-01T19:27:09.959Z,22.82
2018-06-01T19:29:35.766Z,22.73
2018-06-01T19:32:01.564Z,22.64
2018-06-01T19:34:27.370Z,22.61
2018-06-01T19:36:53.077Z,22.57
2018-06-01T19:39:18.826Z,22.56
2018-06-01T19:41:44.588Z,22.69
2018-06-01T19:44:10.312Z,22.63
2018-06-01T19:46:36.069Z,22.59
2018-06-01T19:49:01.849Z,22.36
2018-06-01T19:51:27.572Z,22.43
2018-06-01T19:53:53.308Z,22.18
2018-06-01T19:56:19.064Z,22.07
2018-06-01T19:58:44.963Z,22.01
2018-06-01T20:01:10.828Z,22.00
2018-06-01T20:03:36.588Z,22.01
2018-06-01T20:06:02.356Z,22.17
2018-06-01T20:08:28.102Z,22.03
2018-06-01T20:10:53.852Z,22.06
2018-06-01T20:13:20.431Z,22.04
2018-06-01T20:15:46.126Z,22.07
2018-06-01T20:18:11.868Z,21.97
2018-06-01T20:20:37.620Z,21.94
2018-06-01T20:23:03.380Z,21.92
2018-06-01T20:25:29.104Z,21.85
2018-06-01T20:27:54.839Z,21.75
2018-06-01T20:30:20.587Z,21.66
2018-06-01T20:32:46.332Z,21.62
2018-06-01T20:35:12.069Z,21.54
2018-06-01T20:37:37.808Z,21.48
2018-06-01T20:40:03.564Z,21.49
2018-06-01T20:42:29.318Z,21.38
2018-06-01T20:44:55.044Z,21.45
2018-06-01T20:47:20.792Z,21.44
2018-06-01T20:49:46.518Z,21.46
2018-06-01T20:52:12.269Z,21.33
2018-06-01T20:54:37.999Z,21.31
2018-06-01T20:57:03.753Z,21.39
2018-06-01T20:59:29.494Z,21.24
2018-06-01T21:01:55.277Z,21.33
2018-06-01T21:04:21.097Z,21.20
2018-06-01T21:06:46.921Z,21.32
2018-06-01T21:09:12.839Z,21.44
2018-06-01T21:11:38.688Z,21.25
2018-06-01T21:14:04.600Z,21.16
2018-06-01T21:16:30.596Z,21.25
2018-06-01T21:18:56.453Z,21.05
2018-06-01T21:21:22.235Z,20.90
2018-06-01T21:23:48.136Z,20.83
2018-06-01T21:26:14.090Z,20.83
2018-06-01T21:28:39.860Z,20.79
2018-06-01T21:31:05.591Z,20.63
2018-06-01T21:33:31.347Z,20.59
2018-06-01T21:35:57.085Z,20.52
2018-06-01T21:38:22.849Z,20.49
2018-06-01T21:40:48.590Z,20.30
2018-06-01T21:43:14.336Z,20.22
2018-06-01T21:45:40.069Z,20.12
2018-06-01T21:48:05.818Z,20.07
2018-06-01T21:50:31.557Z,19.99
2018-06-01T21:52:57.309Z,19.95
2018-06-01T21:55:23.048Z,19.90
2018-06-01T21:57:48.785Z,19.89
2018-06-01T22:00:14.531Z,19.91
2018-06-01T22:02:40.290Z,19.84
2018-06-01T22:05:06.017Z,19.79
2018-06-01T22:07:31.777Z,19.81
2018-06-01T22:09:57.506Z,19.75
2018-06-01T22:12:23.244Z,19.70
2018-06-01T22:14:48.993Z,19.73
2018-06-01T22:17:14.720Z,19.83
2018-06-01T22:19:40.489Z,19.65
2018-06-01T22:22:06.239Z,19.65
2018-06-01T22:24:31.970Z,19.72
2018-06-01T22:26:57.708Z,19.69
2018-06-01T22:29:23.462Z,19.57
2018-06-01T22:31:49.192Z,19.49
2018-06-01T22:34:14.940Z,19.39
2018-06-01T22:36:40.672Z,19.29
2018-06-01T22:39:06.417Z,19.26
2018-06-01T22:41:32.154Z,19.23
2018-06-01T22:43:57.896Z,19.23
2018-06-01T22:46:23.627Z,19.21
2018-06-01T22:48:49.377Z,19.19
2018-06-01T22:51:15.120Z,19.12
2018-06-01T22:53:40.871Z,19.14
2018-06-01T22:56:06.608Z,19.17
2018-06-01T22:58:32.360Z,19.17
2018-06-01T23:00:58.349Z,19.11
2018-06-01T23:03:24.108Z,18.96
2018-06-01T23:05:49.883Z,18.92
2018-06-01T23:08:15.644Z,18.93
2018-06-01T23:10:41.391Z,18.87
2018-06-01T23:13:07.177Z,18.85
2018-06-01T23:15:32.951Z,18.85
2018-06-01T23:17:58.687Z,18.76
2018-06-01T23:20:24.440Z,18.76
2018-06-01T23:22:50.180Z,18.76
2018-06-01T23:25:15.918Z,18.70
2018-06-01T23:27:41.754Z,18.70
2018-06-01T23:30:07.508Z,18.62
2018-06-01T23:32:34.644Z,18.64
2018-06-01T23:35:01.209Z,18.60
2018-06-01T23:37:26.950Z,18.58
2018-06-01T23:39:52.693Z,18.49
2018-06-01T23:42:18.460Z,18.47
2018-06-01T23:44:44.211Z,18.37
2018-06-01T23:47:10.212Z,18.30
2018-06-01T23:49:35.966Z,18.33
2018-06-01T23:52:02.694Z,18.25
2018-06-01T23:54:28.445Z,18.27
2018-06-01T23:56:54.168Z,18.23
2018-06-01T23:59:19.921Z,18.28
